Farm — LBHF — position and weather

sailwx.info

Track history (hours):
 
Tides and Currents Weather Stations Pressure Air Temp Water Temp Dewpoint Dewpoint Depression Visibility Wind Speed Wind Dir Waves Ship Positions

Farm

Last reported at 2017-Jun-25 22:30 UTC. Time now 2017-Jun-25 22:44 UTC.
Position N 69°43' E 019°02'.

Length 46 m.

Type: Law enforcement. MMSI: 257069200.

Date/timePositionNaut miles runAvg speedWind from/ knotsBaromVisibWave heightAir tempDewpointWater temp
2017-Jun-25 22:30N 69°43' E 019°02'0 0.3
2017-Jun-25 22:00N 69°43' E 019°02'0 0.3
2017-Jun-25 21:30N 69°43' E 019°02'0 0.3
2017-Jun-25 21:00N 69°44' E 019°02'0 0.2
2017-Jun-25 20:30N 69°44' E 019°01'0 0.2
2017-Jun-25 20:00N 69°44' E 019°01'1 1.0
2017-Jun-25 19:30N 69°43' E 019°01'0 0.2
2017-Jun-25 18:59N 69°43' E 019°01'0 0.1
2017-Jun-25 18:30N 69°43' E 019°01'0 0.1
2017-Jun-25 18:00N 69°43' E 019°01'1 1.9
2017-Jun-25 17:30N 69°44' E 019°02'2 3.6
2017-Jun-25 17:00N 69°46' E 019°04'3 6.2
2017-Jun-25 16:30N 69°49' E 019°01'3 6.4
2017-Jun-25 16:00N 69°51' E 018°54'4 8.4
2017-Jun-25 15:30N 69°54' E 018°45'3 6.4
2017-Jun-25 15:00N 69°51' E 018°38'7 7.4
2017-Jun-25 14:00N 69°48' E 018°19'4 8.6
2017-Jun-25 13:30N 69°43' E 018°18'0 0.6
2017-Jun-25 13:00N 69°43' E 018°18'4 7.6
2017-Jun-25 12:29N 69°47' E 018°17'4 8.9
2017-Jun-25 11:59N 69°49' E 018°29'4 7.8
2017-Jun-25 11:30N 69°48' E 018°40'1 2.2
2017-Jun-25 10:59N 69°47' E 018°42'0 0.2
2017-Jun-25 10:30N 69°47' E 018°42'0 0.1
2017-Jun-25 09:59N 69°47' E 018°42'0 0.1
2017-Jun-25 09:30N 69°47' E 018°42'0 0.2
2017-Jun-25 09:00N 69°48' E 018°42'0 0.2
2017-Jun-25 08:30N 69°48' E 018°42'1 1.1
2017-Jun-25 08:00N 69°47' E 018°41'1 2.8
2017-Jun-25 07:30N 69°49' E 018°39'1 2.0
2017-Jun-25 07:00N 69°48' E 018°42'1 2.7
2017-Jun-25 06:30N 69°48' E 018°46'0 0.1
2017-Jun-25 06:00N 69°48' E 018°46'0 0.0
2017-Jun-25 05:30N 69°48' E 018°46'0 0.1
2017-Jun-25 05:00N 69°48' E 018°46'0 0.1
2017-Jun-25 04:30N 69°48' E 018°46'0 0.0
2017-Jun-25 04:00N 69°48' E 018°46'0 0.0
2017-Jun-25 03:30N 69°48' E 018°45'0 0.0
2017-Jun-25 03:00N 69°48' E 018°45'0 0.0
2017-Jun-25 02:30N 69°48' E 018°45'0 0.0
2017-Jun-25 02:00N 69°48' E 018°45'0 0.0
2017-Jun-25 01:30N 69°48' E 018°45'0 0.0
2017-Jun-25 01:00N 69°48' E 018°45'0 0.0
2017-Jun-25 00:30N 69°48' E 018°45'0 0.0
2017-Jun-24 23:57N 69°48' E 018°45'0 0.0
2017-Jun-24 23:30N 69°48' E 018°45'0 0.0
2017-Jun-24 23:00N 69°48' E 018°45'0 0.0
2017-Jun-24 22:30N 69°48' E 018°45'0 0.0
2017-Jun-24 22:00N 69°48' E 018°45'0 0.0
2017-Jun-24 21:30N 69°48' E 018°45'0 0.1
2017-Jun-24 21:00N 69°48' E 018°45'0 0.0
2017-Jun-24 20:30N 69°48' E 018°45'0 0.0
2017-Jun-24 20:00N 69°48' E 018°46'0 0.0
2017-Jun-24 19:30N 69°48' E 018°45'0 0.1
2017-Jun-24 19:00N 69°48' E 018°46'0 0.0
2017-Jun-24 18:29N 69°48' E 018°46'0 0.1
2017-Jun-24 18:00N 69°48' E 018°46'0 0.4
2017-Jun-24 17:30N 69°48' E 018°45'1 1.8
2017-Jun-24 17:00N 69°48' E 018°43'0 0.3
2017-Jun-24 16:30N 69°48' E 018°43'0 0.2
2017-Jun-24 16:00N 69°48' E 018°43'2 3.1
2017-Jun-24 15:30N 69°49' E 018°40'3 5.4
2017-Jun-24 15:00N 69°52' E 018°38'3 5.4
2017-Jun-24 14:30N 69°54' E 018°41'7 6.5
2017-Jun-24 13:29N 69°51' E 018°57'4 8.6
2017-Jun-24 13:00N 69°47' E 019°03'3 5.3
2017-Jun-24 12:30N 69°44' E 019°02'1 1.1
2017-Jun-24 12:00N 69°44' E 019°01'0 0.6
2017-Jun-24 11:30N 69°44' E 019°01'0 0.9
2017-Jun-24 11:00N 69°44' E 019°02'1 1.2
2017-Jun-24 10:29N 69°44' E 019°01'1 1.9
2017-Jun-24 10:00N 69°43' E 018°59'2 4.6
2017-Jun-24 09:30N 69°42' E 018°54'3 5.8
2017-Jun-24 09:00N 69°39' E 018°52'3 6.6
2017-Jun-24 08:30N 69°36' E 018°51'4 8.7
2017-Jun-24 08:00N 69°33' E 018°41'3 5.9
2017-Jun-24 07:29N 69°32' E 018°33'3 6.8
2017-Jun-24 07:00N 69°31' E 018°24'3 5.7
2017-Jun-24 06:30N 69°30' E 018°16'3 6.1
2017-Jun-24 06:00N 69°28' E 018°09'3 6.0
2017-Jun-24 05:30N 69°25' E 018°07'3 6.5
2017-Jun-24 05:00N 69°22' E 018°06'3 6.4
2017-Jun-24 04:30N 69°19' E 018°01'3 6.0
2017-Jun-24 04:00N 69°17' E 017°58'3 5.9
2017-Jun-24 03:30N 69°14' E 017°58'3 5.6
2017-Jun-24 03:00N 69°11' E 018°01'3 5.8
2017-Jun-24 02:30N 69°10' E 017°54'3 5.4
2017-Jun-24 02:00N 69°09' E 017°47'3 5.9
2017-Jun-24 01:30N 69°07' E 017°39'3 6.1
2017-Jun-24 01:00N 69°06' E 017°31'3 5.8
2017-Jun-24 00:29N 69°05' E 017°24'3 5.7
2017-Jun-24 00:00N 69°03' E 017°20'3 5.7
2017-Jun-23 23:30N 69°00' E 017°16'3 5.1
2017-Jun-23 23:00N 68°59' E 017°10'3 5.3
2017-Jun-23 22:30N 68°58' E 017°03'3 5.7
2017-Jun-23 22:00N 68°57' E 016°56'3 5.8
2017-Jun-23 21:29N 68°55' E 016°49'3 6.0
2017-Jun-23 21:00N 68°54' E 016°41'3 6.5
2017-Jun-23 20:30N 68°52' E 016°34'3 5.2
2017-Jun-23 20:00N 68°52' E 016°27'3 5.4
2017-Jun-23 19:30N 68°54' E 016°21'4 7.7
2017-Jun-23 19:00N 68°57' E 016°14'5 9.3
2017-Jun-23 18:30N 68°58' E 016°02'5 9.1
2017-Jun-23 18:00N 68°59' E 015°49'3 6.2
2017-Jun-23 17:30N 68°58' E 015°40'3 5.2
2017-Jun-23 17:00N 68°56' E 015°36'3 5.4
2017-Jun-23 16:30N 68°54' E 015°33'3 5.4
2017-Jun-23 16:00N 68°51' E 015°30'3 5.7
2017-Jun-23 15:30N 68°49' E 015°26'3 5.5
2017-Jun-23 15:00N 68°46' E 015°25'4 3.7
2017-Jun-23 14:00N 68°42' E 015°25'0 0.0
2017-Jun-23 13:29N 68°42' E 015°25'0 0.0
2017-Jun-23 12:59N 68°42' E 015°25'0 0.0
2017-Jun-23 12:29N 68°42' E 015°25'0 0.0
2017-Jun-23 11:59N 68°42' E 015°25'0 0.0
2017-Jun-23 11:29N 68°42' E 015°25'0 0.0
2017-Jun-23 10:59N 68°42' E 015°25'0 0.0
2017-Jun-23 10:29N 68°42' E 015°25'0 0.0
2017-Jun-23 09:59N 68°42' E 015°25'0 0.0
2017-Jun-23 09:29N 68°42' E 015°25'0 0.0
2017-Jun-23 08:59N 68°42' E 015°25'0 0.0
2017-Jun-23 08:29N 68°42' E 015°25'0 0.0
2017-Jun-23 07:59N 68°42' E 015°25'0 0.0
2017-Jun-23 07:29N 68°42' E 015°25'0 0.0
2017-Jun-23 06:59N 68°42' E 015°25'0 0.0
2017-Jun-23 06:29N 68°42' E 015°25'0 0.0
2017-Jun-23 05:59N 68°42' E 015°25'0 0.0
2017-Jun-23 05:29N 68°42' E 015°25'0 0.0
2017-Jun-23 04:59N 68°42' E 015°25'0 0.0
2017-Jun-23 04:29N 68°42' E 015°25'0 0.0
2017-Jun-23 03:59N 68°42' E 015°25'0 0.0
2017-Jun-23 03:29N 68°42' E 015°25'0 0.0
2017-Jun-23 02:59N 68°42' E 015°25'0 0.0
2017-Jun-23 02:26N 68°42' E 015°25'0 0.0
2017-Jun-23 01:59N 68°42' E 015°25'0 0.0
2017-Jun-23 01:29N 68°42' E 015°25'0 0.0
2017-Jun-23 00:59N 68°42' E 015°25'0 0.0
2017-Jun-23 00:29N 68°42' E 015°25'0 0.0
2017-Jun-22 23:59N 68°42' E 015°25'0 0.0
2017-Jun-22 23:29N 68°42' E 015°25'0 0.0
2017-Jun-22 22:59N 68°42' E 015°25'0 0.0
2017-Jun-22 22:29N 68°42' E 015°25'0 0.0
2017-Jun-22 21:59N 68°42' E 015°25'0 0.0
2017-Jun-22 21:29N 68°42' E 015°25'0 0.0
2017-Jun-22 20:59N 68°42' E 015°25'0 0.0
2017-Jun-22 20:29N 68°42' E 015°25'0 0.0
2017-Jun-22 19:59N 68°42' E 015°25'0 0.0
2017-Jun-22 19:29N 68°42' E 015°25'0 0.0
2017-Jun-22 18:56N 68°42' E 015°25'0 0.0
2017-Jun-22 18:29N 68°42' E 015°25'0 0.0
2017-Jun-22 17:59N 68°42' E 015°25'0 0.0
2017-Jun-22 17:29N 68°42' E 015°25'0 0.0
2017-Jun-22 16:59N 68°42' E 015°25'0 0.0
2017-Jun-22 16:29N 68°42' E 015°25'0 0.0
2017-Jun-22 15:59N 68°42' E 015°25'0 0.0
2017-Jun-22 15:29N 68°42' E 015°25'0 0.0
2017-Jun-22 14:59N 68°42' E 015°25'0 0.0
2017-Jun-22 13:56N 68°42' E 015°25'0 0.0
2017-Jun-22 13:29N 68°42' E 015°25'0 0.0
2017-Jun-22 12:59N 68°42' E 015°25'0 0.0
2017-Jun-22 12:29N 68°42' E 015°25'0 0.0
2017-Jun-22 11:59N 68°42' E 015°25'0 0.0
2017-Jun-22 11:29N 68°42' E 015°25'0 0.0
2017-Jun-22 10:59N 68°42' E 015°25'0 0.0
2017-Jun-22 10:29N 68°42' E 015°25'0 0.0
2017-Jun-22 09:59N 68°42' E 015°25'0 0.0
2017-Jun-22 09:29N 68°42' E 015°25'0 0.0
2017-Jun-22 08:59N 68°42' E 015°25'0 0.0
2017-Jun-22 08:29N 68°42' E 015°25'0 0.0
2017-Jun-22 07:59N 68°42' E 015°25'0 0.0
2017-Jun-22 07:29N 68°42' E 015°25'0 0.0
2017-Jun-22 06:59N 68°42' E 015°25'0 0.0
2017-Jun-22 06:29N 68°42' E 015°25'0 0.0
2017-Jun-22 05:59N 68°42' E 015°25'0 0.0
2017-Jun-22 05:29N 68°42' E 015°25'0 0.0
2017-Jun-22 04:59N 68°42' E 015°25'0 0.0
2017-Jun-22 04:29N 68°42' E 015°25'0 0.0
2017-Jun-22 03:59N 68°42' E 015°25'0 0.0
2017-Jun-22 03:29N 68°42' E 015°25'0 0.0
2017-Jun-22 02:59N 68°42' E 015°25'0 0.0
2017-Jun-22 02:29N 68°42' E 015°25'0 0.0
2017-Jun-22 01:59N 68°42' E 015°25'0 0.0
2017-Jun-22 01:29N 68°42' E 015°25'0 0.0
2017-Jun-22 00:59N 68°42' E 015°25'0 0.0
2017-Jun-22 00:29N 68°42' E 015°25'0 0.0
2017-Jun-21 23:59N 68°42' E 015°25'0 0.0
2017-Jun-21 23:29N 68°42' E 015°25'0 0.0
2017-Jun-21 22:59N 68°42' E 015°25'0 0.0
2017-Jun-21 22:29N 68°42' E 015°25'0 0.0
2017-Jun-21 21:59N 68°42' E 015°25'0 0.0
2017-Jun-21 21:29N 68°42' E 015°25'0 0.0
2017-Jun-21 20:59N 68°42' E 015°25'0 0.0
2017-Jun-21 20:29N 68°42' E 015°25'0 0.0
2017-Jun-21 19:59N 68°42' E 015°25'0 0.0
2017-Jun-21 19:29N 68°42' E 015°25'0 0.0
2017-Jun-21 18:59N 68°42' E 015°25'0 0.0
2017-Jun-21 18:29N 68°42' E 015°25'0 0.0
2017-Jun-21 17:56N 68°42' E 015°25'0 0.0
2017-Jun-21 17:29N 68°42' E 015°25'0 0.0
2017-Jun-21 16:56N 68°42' E 015°25'0 0.0
2017-Jun-21 16:29N 68°42' E 015°25'0 0.0
2017-Jun-21 15:59N 68°42' E 015°25'0 0.0
2017-Jun-21 15:29N 68°42' E 015°25'0 0.0
2017-Jun-21 14:59N 68°42' E 015°25'0 0.0
2017-Jun-21 14:29N 68°42' E 015°25'0 0.0
2017-Jun-21 11:38N 68°42' E 015°25'0 0.0
2017-Jun-21 10:59N 68°42' E 015°25'0 0.0
2017-Jun-20 20:44N 68°42' E 015°25'0 0.0
2017-Jun-20 08:44N 68°42' E 015°25'2 0.1
2017-Jun-19 12:51N 68°44' E 015°25'410.1
2017-Jun-19 12:30N 68°48' E 015°26'510.1
2017-Jun-19 12:00N 68°52' E 015°31'510.5
2017-Jun-19 11:30N 68°57' E 015°36'4 8.4
2017-Jun-19 11:00N 68°59' E 015°47'510.2
2017-Jun-19 10:30N 68°58' E 016°01'611.0
2017-Jun-19 10:00N 68°56' E 016°15'510.4
2017-Jun-19 09:30N 68°53' E 016°26'4 9.0
2017-Jun-19 09:00N 68°50' E 016°37'3 5.4
2017-Jun-19 08:30N 68°48' E 016°34'0 0.1
2017-Jun-19 07:58N 68°48' E 016°34'0 0.0
2017-Jun-19 07:28N 68°48' E 016°34'0 0.0
2017-Jun-19 06:58N 68°48' E 016°34'0 0.0
2017-Jun-19 06:30N 68°48' E 016°34'2 3.6
2017-Jun-19 06:00N 68°48' E 016°39'2 4.0
2017-Jun-19 05:30N 68°50' E 016°42'3 5.4
2017-Jun-19 05:00N 68°52' E 016°46'3 5.6
2017-Jun-19 04:30N 68°54' E 016°52'3 5.5
2017-Jun-19 04:00N 68°55' E 016°58'3 5.3
2017-Jun-19 03:30N 68°57' E 017°03'3 5.2
2017-Jun-19 03:00N 68°59' E 017°09'3 5.1
2017-Jun-19 02:30N 69°00' E 017°15'3 5.4
2017-Jun-19 02:00N 69°02' E 017°19'3 5.6
2017-Jun-19 01:30N 69°05' E 017°22'3 5.3
2017-Jun-19 01:00N 69°06' E 017°28'3 5.7
2017-Jun-19 00:30N 69°07' E 017°36'3 5.9
2017-Jun-19 00:00N 69°08' E 017°44'3 6.0
2017-Jun-18 23:30N 69°09' E 017°52'3 6.1
2017-Jun-18 23:00N 69°11' E 017°59'4 9.1
2017-Jun-18 22:30N 69°15' E 017°58'510.3
2017-Jun-18 22:00N 69°20' E 018°03'5 9.9
2017-Jun-18 21:30N 69°25' E 018°07'510.1
2017-Jun-18 21:00N 69°30' E 018°12'611.7
2017-Jun-18 20:30N 69°32' E 018°27'611.6
2017-Jun-18 20:00N 69°33' E 018°43'4 8.9
2017-Jun-18 19:30N 69°32' E 018°55'5 9.5
2017-Jun-18 19:00N 69°27' E 018°58'3 5.7
2017-Jun-18 18:30N 69°25' E 019°02'3 6.1
2017-Jun-18 18:00N 69°22' E 019°06'  
Track history (hours):
 
Tides and Currents Weather Stations Pressure Air Temp Water Temp Dewpoint Dewpoint Depression Visibility Wind Speed Wind Dir Waves Ship Positions

Farm

Last reported at 2017-Jun-25 22:30 UTC. Time now 2017-Jun-25 22:44 UTC.
Position N 69°43' E 019°02'.

Length 46 m.

Type: Law enforcement. MMSI: 257069200.

Date/timePositionNaut miles runAvg speedWind from/ knotsBaromVisibWave heightAir tempDewpointWater temp
2017-Jun-25 22:30N 69°43' E 019°02'0 0.3
2017-Jun-25 22:00N 69°43' E 019°02'0 0.3
2017-Jun-25 21:30N 69°43' E 019°02'0 0.3
2017-Jun-25 21:00N 69°44' E 019°02'0 0.2
2017-Jun-25 20:30N 69°44' E 019°01'0 0.2
2017-Jun-25 20:00N 69°44' E 019°01'1 1.0
2017-Jun-25 19:30N 69°43' E 019°01'0 0.2
2017-Jun-25 18:59N 69°43' E 019°01'0 0.1
2017-Jun-25 18:30N 69°43' E 019°01'0 0.1
2017-Jun-25 18:00N 69°43' E 019°01'1 1.9
2017-Jun-25 17:30N 69°44' E 019°02'2 3.6
2017-Jun-25 17:00N 69°46' E 019°04'3 6.2
2017-Jun-25 16:30N 69°49' E 019°01'3 6.4
2017-Jun-25 16:00N 69°51' E 018°54'4 8.4
2017-Jun-25 15:30N 69°54' E 018°45'3 6.4
2017-Jun-25 15:00N 69°51' E 018°38'7 7.4
2017-Jun-25 14:00N 69°48' E 018°19'4 8.6
2017-Jun-25 13:30N 69°43' E 018°18'0 0.6
2017-Jun-25 13:00N 69°43' E 018°18'4 7.6
2017-Jun-25 12:29N 69°47' E 018°17'4 8.9
2017-Jun-25 11:59N 69°49' E 018°29'4 7.8
2017-Jun-25 11:30N 69°48' E 018°40'1 2.2
2017-Jun-25 10:59N 69°47' E 018°42'0 0.2
2017-Jun-25 10:30N 69°47' E 018°42'0 0.1
2017-Jun-25 09:59N 69°47' E 018°42'0 0.1
2017-Jun-25 09:30N 69°47' E 018°42'0 0.2
2017-Jun-25 09:00N 69°48' E 018°42'0 0.2
2017-Jun-25 08:30N 69°48' E 018°42'1 1.1
2017-Jun-25 08:00N 69°47' E 018°41'1 2.8
2017-Jun-25 07:30N 69°49' E 018°39'1 2.0
2017-Jun-25 07:00N 69°48' E 018°42'1 2.7
2017-Jun-25 06:30N 69°48' E 018°46'0 0.1
2017-Jun-25 06:00N 69°48' E 018°46'0 0.0
2017-Jun-25 05:30N 69°48' E 018°46'0 0.1
2017-Jun-25 05:00N 69°48' E 018°46'0 0.1
2017-Jun-25 04:30N 69°48' E 018°46'0 0.0
2017-Jun-25 04:00N 69°48' E 018°46'0 0.0
2017-Jun-25 03:30N 69°48' E 018°45'0 0.0
2017-Jun-25 03:00N 69°48' E 018°45'0 0.0
2017-Jun-25 02:30N 69°48' E 018°45'0 0.0
2017-Jun-25 02:00N 69°48' E 018°45'0 0.0
2017-Jun-25 01:30N 69°48' E 018°45'0 0.0
2017-Jun-25 01:00N 69°48' E 018°45'0 0.0
2017-Jun-25 00:30N 69°48' E 018°45'0 0.0
2017-Jun-24 23:57N 69°48' E 018°45'0 0.0
2017-Jun-24 23:30N 69°48' E 018°45'0 0.0
2017-Jun-24 23:00N 69°48' E 018°45'0 0.0
2017-Jun-24 22:30N 69°48' E 018°45'0 0.0
2017-Jun-24 22:00N 69°48' E 018°45'0 0.0
2017-Jun-24 21:30N 69°48' E 018°45'0 0.1
2017-Jun-24 21:00N 69°48' E 018°45'0 0.0
2017-Jun-24 20:30N 69°48' E 018°45'0 0.0
2017-Jun-24 20:00N 69°48' E 018°46'0 0.0
2017-Jun-24 19:30N 69°48' E 018°45'0 0.1
2017-Jun-24 19:00N 69°48' E 018°46'0 0.0
2017-Jun-24 18:29N 69°48' E 018°46'0 0.1
2017-Jun-24 18:00N 69°48' E 018°46'0 0.4
2017-Jun-24 17:30N 69°48' E 018°45'1 1.8
2017-Jun-24 17:00N 69°48' E 018°43'0 0.3
2017-Jun-24 16:30N 69°48' E 018°43'0 0.2
2017-Jun-24 16:00N 69°48' E 018°43'2 3.1
2017-Jun-24 15:30N 69°49' E 018°40'3 5.4
2017-Jun-24 15:00N 69°52' E 018°38'3 5.4
2017-Jun-24 14:30N 69°54' E 018°41'7 6.5
2017-Jun-24 13:29N 69°51' E 018°57'4 8.6
2017-Jun-24 13:00N 69°47' E 019°03'3 5.3
2017-Jun-24 12:30N 69°44' E 019°02'1 1.1
2017-Jun-24 12:00N 69°44' E 019°01'0 0.6
2017-Jun-24 11:30N 69°44' E 019°01'0 0.9
2017-Jun-24 11:00N 69°44' E 019°02'1 1.2
2017-Jun-24 10:29N 69°44' E 019°01'1 1.9
2017-Jun-24 10:00N 69°43' E 018°59'2 4.6
2017-Jun-24 09:30N 69°42' E 018°54'3 5.8
2017-Jun-24 09:00N 69°39' E 018°52'3 6.6
2017-Jun-24 08:30N 69°36' E 018°51'4 8.7
2017-Jun-24 08:00N 69°33' E 018°41'3 5.9
2017-Jun-24 07:29N 69°32' E 018°33'3 6.8
2017-Jun-24 07:00N 69°31' E 018°24'3 5.7
2017-Jun-24 06:30N 69°30' E 018°16'3 6.1
2017-Jun-24 06:00N 69°28' E 018°09'3 6.0
2017-Jun-24 05:30N 69°25' E 018°07'3 6.5
2017-Jun-24 05:00N 69°22' E 018°06'3 6.4
2017-Jun-24 04:30N 69°19' E 018°01'3 6.0
2017-Jun-24 04:00N 69°17' E 017°58'3 5.9
2017-Jun-24 03:30N 69°14' E 017°58'3 5.6
2017-Jun-24 03:00N 69°11' E 018°01'3 5.8
2017-Jun-24 02:30N 69°10' E 017°54'3 5.4
2017-Jun-24 02:00N 69°09' E 017°47'3 5.9
2017-Jun-24 01:30N 69°07' E 017°39'3 6.1
2017-Jun-24 01:00N 69°06' E 017°31'3 5.8
2017-Jun-24 00:29N 69°05' E 017°24'3 5.7
2017-Jun-24 00:00N 69°03' E 017°20'3 5.7
2017-Jun-23 23:30N 69°00' E 017°16'3 5.1
2017-Jun-23 23:00N 68°59' E 017°10'3 5.3
2017-Jun-23 22:30N 68°58' E 017°03'3 5.7
2017-Jun-23 22:00N 68°57' E 016°56'3 5.8
2017-Jun-23 21:29N 68°55' E 016°49'3 6.0
2017-Jun-23 21:00N 68°54' E 016°41'3 6.5
2017-Jun-23 20:30N 68°52' E 016°34'3 5.2
2017-Jun-23 20:00N 68°52' E 016°27'3 5.4
2017-Jun-23 19:30N 68°54' E 016°21'4 7.7
2017-Jun-23 19:00N 68°57' E 016°14'5 9.3
2017-Jun-23 18:30N 68°58' E 016°02'5 9.1
2017-Jun-23 18:00N 68°59' E 015°49'3 6.2
2017-Jun-23 17:30N 68°58' E 015°40'3 5.2
2017-Jun-23 17:00N 68°56' E 015°36'3 5.4
2017-Jun-23 16:30N 68°54' E 015°33'3 5.4
2017-Jun-23 16:00N 68°51' E 015°30'3 5.7
2017-Jun-23 15:30N 68°49' E 015°26'3 5.5
2017-Jun-23 15:00N 68°46' E 015°25'4 3.7
2017-Jun-23 14:00N 68°42' E 015°25'0 0.0
2017-Jun-23 13:29N 68°42' E 015°25'0 0.0
2017-Jun-23 12:59N 68°42' E 015°25'0 0.0
2017-Jun-23 12:29N 68°42' E 015°25'0 0.0
2017-Jun-23 11:59N 68°42' E 015°25'0 0.0
2017-Jun-23 11:29N 68°42' E 015°25'0 0.0
2017-Jun-23 10:59N 68°42' E 015°25'0 0.0
2017-Jun-23 10:29N 68°42' E 015°25'0 0.0
2017-Jun-23 09:59N 68°42' E 015°25'0 0.0
2017-Jun-23 09:29N 68°42' E 015°25'0 0.0
2017-Jun-23 08:59N 68°42' E 015°25'0 0.0
2017-Jun-23 08:29N 68°42' E 015°25'0 0.0
2017-Jun-23 07:59N 68°42' E 015°25'0 0.0
2017-Jun-23 07:29N 68°42' E 015°25'0 0.0
2017-Jun-23 06:59N 68°42' E 015°25'0 0.0
2017-Jun-23 06:29N 68°42' E 015°25'0 0.0
2017-Jun-23 05:59N 68°42' E 015°25'0 0.0
2017-Jun-23 05:29N 68°42' E 015°25'0 0.0
2017-Jun-23 04:59N 68°42' E 015°25'0 0.0
2017-Jun-23 04:29N 68°42' E 015°25'0 0.0
2017-Jun-23 03:59N 68°42' E 015°25'0 0.0
2017-Jun-23 03:29N 68°42' E 015°25'0 0.0
2017-Jun-23 02:59N 68°42' E 015°25'0 0.0
2017-Jun-23 02:26N 68°42' E 015°25'0 0.0
2017-Jun-23 01:59N 68°42' E 015°25'0 0.0
2017-Jun-23 01:29N 68°42' E 015°25'0 0.0
2017-Jun-23 00:59N 68°42' E 015°25'0 0.0
2017-Jun-23 00:29N 68°42' E 015°25'0 0.0
2017-Jun-22 23:59N 68°42' E 015°25'0 0.0
2017-Jun-22 23:29N 68°42' E 015°25'0 0.0
2017-Jun-22 22:59N 68°42' E 015°25'0 0.0
2017-Jun-22 22:29N 68°42' E 015°25'0 0.0
2017-Jun-22 21:59N 68°42' E 015°25'0 0.0
2017-Jun-22 21:29N 68°42' E 015°25'0 0.0
2017-Jun-22 20:59N 68°42' E 015°25'0 0.0
2017-Jun-22 20:29N 68°42' E 015°25'0 0.0
2017-Jun-22 19:59N 68°42' E 015°25'0 0.0
2017-Jun-22 19:29N 68°42' E 015°25'0 0.0
2017-Jun-22 18:56N 68°42' E 015°25'0 0.0
2017-Jun-22 18:29N 68°42' E 015°25'0 0.0
2017-Jun-22 17:59N 68°42' E 015°25'0 0.0
2017-Jun-22 17:29N 68°42' E 015°25'0 0.0
2017-Jun-22 16:59N 68°42' E 015°25'0 0.0
2017-Jun-22 16:29N 68°42' E 015°25'0 0.0
2017-Jun-22 15:59N 68°42' E 015°25'0 0.0
2017-Jun-22 15:29N 68°42' E 015°25'0 0.0
2017-Jun-22 14:59N 68°42' E 015°25'0 0.0
2017-Jun-22 13:56N 68°42' E 015°25'0 0.0
2017-Jun-22 13:29N 68°42' E 015°25'0 0.0
2017-Jun-22 12:59N 68°42' E 015°25'0 0.0
2017-Jun-22 12:29N 68°42' E 015°25'0 0.0
2017-Jun-22 11:59N 68°42' E 015°25'0 0.0
2017-Jun-22 11:29N 68°42' E 015°25'0 0.0
2017-Jun-22 10:59N 68°42' E 015°25'0 0.0
2017-Jun-22 10:29N 68°42' E 015°25'0 0.0
2017-Jun-22 09:59N 68°42' E 015°25'0 0.0
2017-Jun-22 09:29N 68°42' E 015°25'0 0.0
2017-Jun-22 08:59N 68°42' E 015°25'0 0.0
2017-Jun-22 08:29N 68°42' E 015°25'0 0.0
2017-Jun-22 07:59N 68°42' E 015°25'0 0.0
2017-Jun-22 07:29N 68°42' E 015°25'0 0.0
2017-Jun-22 06:59N 68°42' E 015°25'0 0.0
2017-Jun-22 06:29N 68°42' E 015°25'0 0.0
2017-Jun-22 05:59N 68°42' E 015°25'0 0.0
2017-Jun-22 05:29N 68°42' E 015°25'0 0.0
2017-Jun-22 04:59N 68°42' E 015°25'0 0.0
2017-Jun-22 04:29N 68°42' E 015°25'0 0.0
2017-Jun-22 03:59N 68°42' E 015°25'0 0.0
2017-Jun-22 03:29N 68°42' E 015°25'0 0.0
2017-Jun-22 02:59N 68°42' E 015°25'0 0.0
2017-Jun-22 02:29N 68°42' E 015°25'0 0.0
2017-Jun-22 01:59N 68°42' E 015°25'0 0.0
2017-Jun-22 01:29N 68°42' E 015°25'0 0.0
2017-Jun-22 00:59N 68°42' E 015°25'0 0.0
2017-Jun-22 00:29N 68°42' E 015°25'0 0.0
2017-Jun-21 23:59N 68°42' E 015°25'0 0.0
2017-Jun-21 23:29N 68°42' E 015°25'0 0.0
2017-Jun-21 22:59N 68°42' E 015°25'0 0.0
2017-Jun-21 22:29N 68°42' E 015°25'0 0.0
2017-Jun-21 21:59N 68°42' E 015°25'0 0.0
2017-Jun-21 21:29N 68°42' E 015°25'0 0.0
2017-Jun-21 20:59N 68°42' E 015°25'0 0.0
2017-Jun-21 20:29N 68°42' E 015°25'0 0.0
2017-Jun-21 19:59N 68°42' E 015°25'0 0.0
2017-Jun-21 19:29N 68°42' E 015°25'0 0.0
2017-Jun-21 18:59N 68°42' E 015°25'0 0.0
2017-Jun-21 18:29N 68°42' E 015°25'0 0.0
2017-Jun-21 17:56N 68°42' E 015°25'0 0.0
2017-Jun-21 17:29N 68°42' E 015°25'0 0.0
2017-Jun-21 16:56N 68°42' E 015°25'0 0.0
2017-Jun-21 16:29N 68°42' E 015°25'0 0.0
2017-Jun-21 15:59N 68°42' E 015°25'0 0.0
2017-Jun-21 15:29N 68°42' E 015°25'0 0.0
2017-Jun-21 14:59N 68°42' E 015°25'0 0.0
2017-Jun-21 14:29N 68°42' E 015°25'0 0.0
2017-Jun-21 11:38N 68°42' E 015°25'0 0.0
2017-Jun-21 10:59N 68°42' E 015°25'0 0.0
2017-Jun-20 20:44N 68°42' E 015°25'0 0.0
2017-Jun-20 08:44N 68°42' E 015°25'2 0.1
2017-Jun-19 12:51N 68°44' E 015°25'410.1
2017-Jun-19 12:30N 68°48' E 015°26'510.1
2017-Jun-19 12:00N 68°52' E 015°31'510.5
2017-Jun-19 11:30N 68°57' E 015°36'4 8.4
2017-Jun-19 11:00N 68°59' E 015°47'510.2
2017-Jun-19 10:30N 68°58' E 016°01'611.0
2017-Jun-19 10:00N 68°56' E 016°15'510.4
2017-Jun-19 09:30N 68°53' E 016°26'4 9.0
2017-Jun-19 09:00N 68°50' E 016°37'3 5.4
2017-Jun-19 08:30N 68°48' E 016°34'0 0.1
2017-Jun-19 07:58N 68°48' E 016°34'0 0.0
2017-Jun-19 07:28N 68°48' E 016°34'0 0.0
2017-Jun-19 06:58N 68°48' E 016°34'0 0.0
2017-Jun-19 06:30N 68°48' E 016°34'2 3.6
2017-Jun-19 06:00N 68°48' E 016°39'2 4.0
2017-Jun-19 05:30N 68°50' E 016°42'3 5.4
2017-Jun-19 05:00N 68°52' E 016°46'3 5.6
2017-Jun-19 04:30N 68°54' E 016°52'3 5.5
2017-Jun-19 04:00N 68°55' E 016°58'3 5.3
2017-Jun-19 03:30N 68°57' E 017°03'3 5.2
2017-Jun-19 03:00N 68°59' E 017°09'3 5.1
2017-Jun-19 02:30N 69°00' E 017°15'3 5.4
2017-Jun-19 02:00N 69°02' E 017°19'3 5.6
2017-Jun-19 01:30N 69°05' E 017°22'3 5.3
2017-Jun-19 01:00N 69°06' E 017°28'3 5.7
2017-Jun-19 00:30N 69°07' E 017°36'3 5.9
2017-Jun-19 00:00N 69°08' E 017°44'3 6.0
2017-Jun-18 23:30N 69°09' E 017°52'3 6.1
2017-Jun-18 23:00N 69°11' E 017°59'4 9.1
2017-Jun-18 22:30N 69°15' E 017°58'510.3
2017-Jun-18 22:00N 69°20' E 018°03'5 9.9
2017-Jun-18 21:30N 69°25' E 018°07'510.1
2017-Jun-18 21:00N 69°30' E 018°12'611.7
2017-Jun-18 20:30N 69°32' E 018°27'611.6
2017-Jun-18 20:00N 69°33' E 018°43'4 8.9
2017-Jun-18 19:30N 69°32' E 018°55'5 9.5
2017-Jun-18 19:00N 69°27' E 018°58'3 5.7
2017-Jun-18 18:30N 69°25' E 019°02'3 6.1
2017-Jun-18 18:00N 69°22' E 019°06'  

Dump ship's entire track history